createdAt,value
2023-02-11T00:01:29.517Z,6.60
2023-02-11T00:03:58.530Z,6.40
2023-02-11T00:06:29.929Z,7.10
2023-02-11T00:08:58.555Z,6.53
2023-02-11T00:11:30.363Z,6.40
2023-02-11T00:13:59.013Z,7.17
2023-02-11T00:16:28.657Z,7.67
2023-02-11T00:18:57.161Z,7.50
2023-02-11T00:21:26.873Z,7.30
2023-02-11T00:23:57.147Z,7.70
2023-02-11T00:26:26.726Z,6.90
2023-02-11T00:28:57.035Z,6.70
2023-02-11T00:31:26.485Z,7.23
2023-02-11T00:33:56.405Z,7.97
2023-02-11T00:36:26.743Z,7.40
2023-02-11T00:38:57.394Z,6.33
2023-02-11T00:41:26.385Z,6.80
2023-02-11T00:43:54.707Z,7.07
2023-02-11T00:46:23.449Z,6.70
2023-02-11T00:48:54.940Z,7.10
2023-02-11T00:51:24.509Z,6.67
2023-02-11T00:53:53.276Z,7.97
2023-02-11T00:56:22.003Z,7.37
2023-02-11T00:58:50.421Z,7.10
2023-02-11T01:01:18.745Z,7.33
2023-02-11T01:03:47.051Z,7.20
2023-02-11T01:06:16.239Z,7.40
2023-02-11T01:08:46.079Z,7.10
2023-02-11T01:11:17.209Z,7.13
2023-02-11T01:13:47.415Z,6.73
2023-02-11T01:16:17.197Z,7.27
2023-02-11T01:18:46.672Z,6.90
2023-02-11T01:21:14.879Z,7.63
2023-02-11T01:23:45.826Z,6.80
2023-02-11T01:26:13.941Z,7.70
2023-02-11T01:28:42.107Z,6.87
2023-02-11T01:31:10.302Z,6.63
2023-02-11T01:33:38.412Z,6.40
2023-02-11T01:36:08.747Z,6.63
2023-02-11T01:38:36.924Z,6.80
2023-02-11T01:41:09.296Z,7.03
2023-02-11T01:43:41.399Z,7.40
2023-02-11T01:46:31.027Z,7.30
2023-02-11T01:49:03.698Z,6.70
2023-02-11T01:51:37.208Z,6.63
2023-02-11T01:54:25.196Z,7.90
2023-02-11T01:57:15.538Z,7.57
2023-02-11T01:59:48.496Z,7.20
2023-02-11T02:02:21.349Z,7.20
2023-02-11T02:04:56.399Z,6.50
2023-02-11T02:07:33.773Z,6.57
2023-02-11T02:10:06.963Z,7.33
2023-02-11T02:12:38.827Z,7.13
2023-02-11T02:15:24.409Z,7.73
2023-02-11T02:17:59.931Z,7.43
2023-02-11T02:21:03.791Z,6.93
2023-02-11T02:23:43.943Z,7.53
2023-02-11T02:26:49.313Z,6.77
2023-02-11T02:29:57.203Z,6.83
2023-02-11T02:32:37.302Z,7.00
2023-02-11T02:35:17.557Z,6.40
2023-02-11T02:37:52.839Z,6.83
2023-02-11T02:40:26.135Z,7.10
2023-02-11T02:42:55.780Z,6.70
2023-02-11T02:45:23.911Z,6.83
2023-02-11T02:47:53.372Z,7.43
2023-02-11T02:50:30.087Z,7.20
2023-02-11T02:53:12.867Z,7.17
2023-02-11T02:56:01.421Z,6.93
2023-02-11T02:58:47.706Z,6.30
2023-02-11T03:01:27.855Z,6.73
2023-02-11T03:04:04.379Z,7.10
2023-02-11T03:06:38.964Z,6.93
2023-02-11T03:09:11.894Z,8.00
2023-02-11T03:11:41.141Z,6.30
2023-02-11T03:14:12.290Z,7.00
2023-02-11T03:16:41.159Z,9.07
2023-02-11T03:19:15.290Z,7.03
2023-02-11T03:21:45.216Z,6.80
2023-02-11T03:24:17.020Z,7.47
2023-02-11T03:26:50.517Z,6.80
2023-02-11T03:29:27.467Z,6.50
2023-02-11T03:32:00.545Z,7.00
2023-02-11T03:34:36.828Z,7.40
2023-02-11T03:37:10.837Z,6.87
2023-02-11T03:39:43.353Z,6.90
2023-02-11T03:42:13.566Z,7.70
2023-02-11T03:44:47.054Z,7.30
2023-02-11T03:47:19.668Z,6.53
2023-02-11T03:49:52.998Z,6.50
2023-02-11T03:52:22.958Z,6.30
2023-02-11T03:54:55.284Z,7.10
2023-02-11T03:57:23.425Z,7.30
2023-02-11T03:59:56.920Z,7.20
2023-02-11T04:02:28.436Z,6.90
2023-02-11T04:04:57.960Z,7.03
2023-02-11T04:07:26.774Z,7.33
2023-02-11T04:09:55.423Z,7.03
2023-02-11T04:12:23.583Z,7.33
2023-02-11T04:14:51.694Z,6.83
2023-02-11T04:17:20.226Z,6.90
2023-02-11T04:19:48.366Z,6.93
2023-02-11T04:22:17.868Z,8.07
2023-02-11T04:24:45.963Z,7.30
2023-02-11T04:27:14.105Z,6.57
2023-02-11T04:29:42.223Z,6.63
2023-02-11T04:32:10.576Z,7.70
2023-02-11T04:34:38.937Z,7.60
2023-02-11T04:37:07.447Z,6.27
2023-02-11T04:39:37.070Z,7.30
2023-02-11T04:42:05.356Z,6.20
2023-02-11T04:44:33.793Z,6.70
2023-02-11T04:47:02.005Z,6.53
2023-02-11T04:49:30.112Z,6.47
2023-02-11T04:51:58.242Z,7.07
2023-02-11T04:54:26.355Z,7.70
2023-02-11T04:56:55.787Z,7.70
2023-02-11T04:59:23.855Z,6.20
2023-02-11T05:01:52.029Z,6.47
2023-02-11T05:04:20.413Z,6.67
2023-02-11T05:06:48.568Z,6.40
2023-02-11T05:09:16.919Z,5.83
2023-02-11T05:11:45.144Z,6.73
2023-02-11T05:14:14.610Z,7.00
2023-02-11T05:16:42.776Z,6.77
2023-02-11T05:19:11.097Z,6.90
2023-02-11T05:21:40.107Z,7.63
2023-02-11T05:24:10.558Z,6.80
2023-02-11T05:26:38.677Z,6.93
2023-02-11T05:29:06.797Z,6.20
2023-02-11T05:31:36.244Z,6.90
2023-02-11T05:34:04.596Z,7.57
2023-02-11T05:36:33.554Z,6.83
2023-02-11T05:39:01.710Z,6.90
2023-02-11T05:41:29.876Z,7.20
2023-02-11T05:43:57.954Z,7.90
2023-02-11T05:46:26.245Z,7.10
2023-02-11T05:48:56.599Z,6.60
2023-02-11T05:51:25.292Z,6.73
2023-02-11T05:53:53.660Z,6.27
2023-02-11T05:56:21.766Z,6.63
2023-02-11T05:58:49.847Z,6.40
2023-02-11T06:01:17.971Z,6.70
2023-02-11T06:03:46.121Z,7.13
2023-02-11T06:06:15.688Z,7.07
2023-02-11T06:08:43.821Z,6.63
2023-02-11T06:11:11.894Z,6.50
2023-02-11T06:13:39.986Z,8.40
2023-02-11T06:16:08.329Z,6.10
2023-02-11T06:18:36.456Z,7.10
2023-02-11T06:21:08.923Z,6.07
2023-02-11T06:23:38.836Z,6.57
2023-02-11T06:26:08.824Z,6.27
2023-02-11T06:28:38.704Z,6.10
2023-02-11T06:31:09.762Z,6.37
2023-02-11T06:33:37.967Z,5.87
2023-02-11T06:36:12.425Z,6.77
2023-02-11T06:38:42.038Z,6.10
2023-02-11T06:41:11.940Z,6.90
2023-02-11T06:43:43.700Z,7.30
2023-02-11T06:46:11.894Z,6.50
2023-02-11T06:48:40.092Z,5.60
2023-02-11T06:51:10.659Z,6.73
2023-02-11T06:53:40.181Z,6.80
2023-02-11T06:56:12.568Z,6.40
2023-02-11T06:58:40.723Z,7.23
2023-02-11T07:01:10.286Z,6.57
2023-02-11T07:03:40.164Z,6.47
2023-02-11T07:06:09.206Z,7.80
2023-02-11T07:08:38.607Z,6.77
2023-02-11T07:11:12.661Z,6.60
2023-02-11T07:13:40.910Z,6.33
2023-02-11T07:16:10.788Z,6.17
2023-02-11T07:18:38.932Z,7.10
2023-02-11T07:21:08.384Z,6.77
2023-02-11T07:23:37.334Z,7.10
2023-02-11T07:26:06.281Z,7.10
2023-02-11T07:28:38.770Z,6.23
2023-02-11T07:31:08.997Z,6.30
2023-02-11T07:33:37.705Z,7.53
2023-02-11T07:36:07.620Z,6.27
2023-02-11T07:38:37.419Z,6.70
2023-02-11T07:41:09.327Z,7.43
2023-02-11T07:43:39.619Z,7.87
2023-02-11T07:46:11.692Z,7.50
2023-02-11T07:48:40.094Z,6.93
2023-02-11T07:51:10.196Z,7.30
2023-02-11T07:53:38.505Z,6.87
2023-02-11T07:56:08.150Z,6.77
2023-02-11T07:58:38.304Z,6.67
2023-02-11T08:01:08.710Z,7.30
2023-02-11T08:03:38.208Z,6.97
2023-02-11T08:06:07.705Z,6.40
2023-02-11T08:08:36.810Z,6.80
2023-02-11T08:11:08.781Z,6.90
2023-02-11T08:13:38.610Z,6.50
2023-02-11T08:16:07.908Z,7.07
2023-02-11T08:18:36.737Z,6.40
2023-02-11T08:21:10.454Z,6.20
2023-02-11T08:23:38.918Z,6.37
2023-02-11T08:26:08.572Z,7.27
2023-02-11T08:28:39.560Z,6.40
2023-02-11T08:31:08.398Z,6.47
2023-02-11T08:33:37.068Z,6.57
2023-02-11T08:36:10.274Z,6.03
2023-02-11T08:38:38.601Z,6.30
2023-02-11T08:41:07.754Z,5.90
2023-02-11T08:43:36.336Z,6.50
2023-02-11T08:46:06.618Z,6.10
2023-02-11T08:48:34.788Z,6.60
2023-02-11T08:51:07.892Z,6.80
2023-02-11T08:53:36.282Z,6.37
2023-02-11T08:56:04.896Z,6.90
2023-02-11T08:58:33.351Z,6.40
2023-02-11T09:01:01.520Z,6.50
2023-02-11T09:03:31.030Z,7.10
2023-02-11T09:05:59.128Z,6.73
2023-02-11T09:08:27.248Z,6.97
2023-02-11T09:10:57.843Z,6.47
2023-02-11T09:13:25.956Z,8.07
2023-02-11T09:15:54.066Z,6.93
2023-02-11T09:18:22.242Z,6.30
2023-02-11T09:20:51.978Z,5.73
2023-02-11T09:23:20.226Z,6.57
2023-02-11T09:25:48.500Z,7.17
2023-02-11T09:28:16.818Z,7.03
2023-02-11T09:30:45.060Z,6.80
2023-02-11T09:33:13.248Z,6.33
2023-02-11T09:35:41.367Z,7.90
2023-02-11T09:38:10.876Z,7.37
2023-02-11T09:40:43.828Z,6.40
2023-02-11T09:43:18.493Z,6.50
2023-02-11T09:45:46.651Z,5.43
2023-02-11T09:48:16.777Z,6.73
2023-02-11T09:50:48.303Z,7.03
2023-02-11T09:53:24.517Z,6.70
2023-02-11T09:55:56.292Z,5.93
2023-02-11T09:58:28.561Z,6.40
2023-02-11T10:01:07.501Z,6.20
2023-02-11T10:03:54.320Z,5.60
2023-02-11T10:06:37.056Z,6.60
2023-02-11T10:09:29.425Z,6.50
2023-02-11T10:12:12.647Z,5.90
2023-02-11T10:14:57.978Z,5.40
2023-02-11T10:17:36.905Z,6.27
2023-02-11T10:20:18.395Z,7.10
2023-02-11T10:22:50.358Z,5.33
2023-02-11T10:25:25.803Z,5.90
2023-02-11T10:27:57.906Z,6.60
2023-02-11T10:30:32.121Z,6.57
2023-02-11T10:33:04.501Z,6.53
2023-02-11T10:35:33.651Z,6.50
2023-02-11T10:38:01.959Z,6.17
2023-02-11T10:40:33.825Z,6.07
2023-02-11T10:43:06.049Z,5.63
2023-02-11T10:45:37.091Z,5.13
2023-02-11T10:48:07.159Z,5.60
2023-02-11T10:50:36.950Z,5.57
2023-02-11T10:53:20.668Z,6.00
2023-02-11T10:55:55.565Z,6.30
2023-02-11T10:58:27.510Z,6.87
2023-02-11T11:00:57.676Z,5.57
2023-02-11T11:03:28.527Z,6.17
2023-02-11T11:05:58.880Z,6.10
2023-02-11T11:08:41.742Z,6.97
2023-02-11T11:11:12.727Z,6.60
2023-02-11T11:13:43.372Z,5.47
2023-02-11T11:16:19.345Z,6.43
2023-02-11T11:18:48.986Z,5.63
2023-02-11T11:21:21.143Z,6.00
2023-02-11T11:23:53.442Z,6.00
2023-02-11T11:26:25.432Z,5.70
2023-02-11T11:29:09.137Z,5.20
2023-02-11T11:31:48.774Z,5.97
2023-02-11T11:34:24.270Z,5.43
2023-02-11T11:36:52.780Z,5.53
2023-02-11T11:39:25.144Z,5.37
2023-02-11T11:41:57.396Z,6.60
2023-02-11T11:44:32.018Z,5.97
2023-02-11T11:47:28.063Z,5.43
2023-02-11T11:50:21.251Z,6.03
2023-02-11T11:52:56.169Z,5.30
2023-02-11T11:55:28.053Z,5.40
2023-02-11T11:57:57.646Z,5.90
2023-02-11T12:00:45.125Z,4.93
2023-02-11T12:03:49.259Z,4.80
2023-02-11T12:06:31.915Z,5.37
2023-02-11T12:09:12.632Z,5.17
2023-02-11T12:11:56.613Z,5.40
2023-02-11T12:14:39.340Z,5.90
2023-02-11T12:17:20.484Z,5.47
2023-02-11T12:20:18.140Z,5.20
2023-02-11T12:22:57.815Z,5.57
2023-02-11T12:25:31.238Z,4.53
2023-02-11T12:28:10.120Z,5.10
2023-02-11T12:30:58.186Z,4.50
2023-02-11T12:33:40.835Z,5.27
2023-02-11T12:36:14.670Z,4.43
2023-02-11T12:38:58.741Z,5.20
2023-02-11T12:42:09.480Z,5.33
2023-02-11T12:44:47.076Z,4.33
2023-02-11T12:47:23.611Z,5.00
2023-02-11T12:50:05.794Z,5.90
2023-02-11T12:52:48.882Z,5.10
2023-02-11T12:55:22.874Z,4.33
2023-02-11T12:57:53.170Z,4.40
2023-02-11T13:00:24.813Z,4.87
2023-02-11T13:03:01.836Z,4.90
2023-02-11T13:05:37.447Z,4.10
2023-02-11T13:08:13.328Z,3.60
2023-02-11T13:10:44.827Z,4.53
2023-02-11T13:13:19.389Z,3.90
2023-02-11T13:15:52.709Z,3.77
2023-02-11T13:18:44.931Z,4.97
2023-02-11T13:21:34.900Z,4.87
2023-02-11T13:24:12.349Z,3.60
2023-02-11T13:26:46.871Z,4.47
2023-02-11T13:29:24.353Z,4.00
2023-02-11T13:31:56.684Z,4.17
2023-02-11T13:34:28.751Z,3.93
2023-02-11T13:36:58.415Z,3.60
2023-02-11T13:39:27.505Z,4.23
2023-02-11T13:42:05.820Z,3.43
2023-02-11T13:44:35.852Z,3.93
2023-02-11T13:47:06.362Z,3.97
2023-02-11T13:49:41.887Z,4.30
2023-02-11T13:52:24.314Z,4.40
2023-02-11T13:54:54.961Z,4.83
2023-02-11T13:57:37.784Z,4.57
2023-02-11T14:00:50.201Z,4.43
2023-02-11T14:03:57.597Z,4.40
2023-02-11T14:07:01.348Z,4.00
2023-02-11T14:09:40.376Z,3.60
2023-02-11T14:12:31.580Z,3.57
2023-02-11T14:15:16.288Z,4.43
2023-02-11T14:17:44.418Z,3.80
2023-02-11T14:20:35.090Z,3.80
2023-02-11T14:23:05.568Z,3.77
2023-02-11T14:25:33.994Z,3.80
2023-02-11T14:28:09.018Z,3.40
2023-02-11T14:30:47.031Z,3.90
2023-02-11T14:33:31.924Z,4.50
2023-02-11T14:36:08.783Z,3.57
2023-02-11T14:38:49.345Z,3.60
2023-02-11T14:41:21.902Z,3.33
2023-02-11T14:43:53.371Z,3.43
2023-02-11T14:46:24.505Z,3.83
2023-02-11T14:48:56.314Z,3.87
2023-02-11T14:51:27.617Z,3.27
2023-02-11T14:54:00.598Z,3.00
2023-02-11T14:56:31.092Z,3.63
2023-02-11T14:59:00.154Z,4.47
2023-02-11T15:01:31.901Z,3.90
2023-02-11T15:04:01.333Z,3.60
2023-02-11T15:06:32.899Z,3.00
2023-02-11T15:09:05.411Z,3.80
2023-02-11T15:11:39.410Z,3.03
2023-02-11T15:14:10.205Z,3.07
2023-02-11T15:16:43.721Z,3.53
2023-02-11T15:19:22.338Z,3.60
2023-02-11T15:21:51.725Z,3.50
2023-02-11T15:24:26.917Z,3.33
2023-02-11T15:27:02.757Z,2.97
2023-02-11T15:29:38.038Z,3.37
2023-02-11T15:32:08.694Z,3.13
2023-02-11T15:34:37.536Z,3.20
2023-02-11T15:37:06.478Z,2.80
2023-02-11T15:39:41.027Z,3.63
2023-02-11T15:42:26.718Z,3.57
2023-02-11T15:45:23.844Z,3.40
2023-02-11T15:47:54.474Z,3.37
2023-02-11T15:50:25.076Z,3.70
2023-02-11T15:52:54.637Z,4.13
2023-02-11T15:55:26.091Z,3.23
2023-02-11T15:57:57.419Z,3.00
2023-02-11T16:00:31.592Z,3.37
2023-02-11T16:02:59.766Z,3.30
2023-02-11T16:05:33.994Z,3.63
2023-02-11T16:08:14.282Z,2.60
2023-02-11T16:10:58.402Z,2.40
2023-02-11T16:13:28.275Z,2.70
2023-02-11T16:16:02.666Z,2.60
2023-02-11T16:18:38.699Z,2.30
2023-02-11T16:21:16.921Z,3.13
2023-02-11T16:23:52.559Z,2.97
2023-02-11T16:26:30.455Z,3.30
2023-02-11T16:29:08.497Z,3.37
2023-02-11T16:31:38.783Z,3.17
2023-02-11T16:34:14.412Z,3.37
2023-02-11T16:36:44.371Z,3.20
2023-02-11T16:39:13.092Z,2.93
2023-02-11T16:41:42.536Z,2.90
2023-02-11T16:44:11.468Z,2.77
2023-02-11T16:46:40.656Z,2.70
2023-02-11T16:49:12.846Z,2.57
2023-02-11T16:51:43.319Z,3.00
2023-02-11T16:54:16.820Z,3.27
2023-02-11T16:56:46.821Z,3.20
2023-02-11T16:59:15.027Z,3.20
2023-02-11T17:01:45.125Z,2.97
2023-02-11T17:04:18.477Z,2.83
2023-02-11T17:06:48.123Z,3.50
2023-02-11T17:09:20.669Z,3.47
2023-02-11T17:11:51.268Z,3.13
2023-02-11T17:14:20.502Z,4.10
2023-02-11T17:16:50.078Z,3.77
2023-02-11T17:19:21.926Z,3.70
2023-02-11T17:21:52.375Z,4.13
2023-02-11T17:24:22.842Z,3.60
2023-02-11T17:26:53.133Z,3.80
2023-02-11T17:29:24.686Z,4.63
2023-02-11T17:31:54.354Z,4.17
2023-02-11T17:34:24.737Z,4.33
2023-02-11T17:36:53.003Z,3.37
2023-02-11T17:39:21.275Z,4.57
2023-02-11T17:41:49.449Z,4.40
2023-02-11T17:44:19.083Z,4.00
2023-02-11T17:46:47.256Z,4.60
2023-02-11T17:49:15.766Z,3.87
2023-02-11T17:51:44.215Z,5.13
2023-02-11T17:54:18.711Z,4.50
2023-02-11T17:56:50.500Z,3.90
2023-02-11T17:59:20.415Z,4.23
2023-02-11T18:01:48.740Z,4.03
2023-02-11T18:04:19.891Z,4.20
2023-02-11T18:06:48.532Z,4.57
2023-02-11T18:09:16.934Z,3.77
2023-02-11T18:11:45.242Z,3.93
2023-02-11T18:14:13.461Z,4.90
2023-02-11T18:16:44.802Z,5.23
2023-02-11T18:19:13.947Z,4.43
2023-02-11T18:21:42.542Z,5.43
2023-02-11T18:24:11.589Z,5.23
2023-02-11T18:26:39.700Z,5.70
2023-02-11T18:29:07.930Z,6.23
2023-02-11T18:31:36.803Z,6.70
2023-02-11T18:34:08.377Z,7.83
2023-02-11T18:36:36.677Z,7.53
2023-02-11T18:39:05.783Z,8.80
2023-02-11T18:41:34.032Z,8.80
2023-02-11T18:44:03.260Z,8.40
2023-02-11T18:46:31.905Z,9.60
2023-02-11T18:49:00.185Z,9.07
2023-02-11T18:51:31.861Z,10.50
2023-02-11T18:54:01.193Z,10.27
2023-02-11T18:56:29.436Z,10.23
2023-02-11T18:59:01.080Z,9.70
2023-02-11T19:01:31.114Z,10.87
2023-02-11T19:04:02.823Z,9.40
2023-02-11T19:06:34.859Z,11.23
2023-02-11T19:09:05.838Z,10.60
2023-02-11T19:11:54.194Z,10.83
2023-02-11T19:14:25.126Z,9.77
2023-02-11T19:16:55.320Z,10.50
2023-02-11T19:19:25.352Z,10.43
2023-02-11T19:21:55.417Z,10.53
2023-02-11T19:24:24.381Z,9.93
2023-02-11T19:26:54.631Z,10.00
2023-02-11T19:29:22.918Z,10.37
2023-02-11T19:31:51.224Z,10.53
2023-02-11T19:34:21.258Z,8.50
2023-02-11T19:36:50.497Z,10.00
2023-02-11T19:39:20.045Z,10.10
2023-02-11T19:41:48.218Z,9.97
2023-02-11T19:44:16.693Z,10.97
2023-02-11T19:46:45.986Z,10.70
2023-02-11T19:49:17.634Z,10.87
2023-02-11T19:51:46.942Z,11.60
2023-02-11T19:54:16.334Z,11.10
2023-02-11T19:56:45.978Z,10.00
2023-02-11T19:59:14.771Z,11.10
2023-02-11T20:01:44.331Z,11.23
2023-02-11T20:04:13.213Z,10.40
2023-02-11T20:06:41.451Z,11.10
2023-02-11T20:09:12.866Z,10.73
2023-02-11T20:11:42.807Z,10.90
2023-02-11T20:14:15.625Z,9.30
2023-02-11T20:16:49.051Z,11.17
2023-02-11T20:19:19.010Z,10.80
2023-02-11T20:21:48.608Z,10.23
2023-02-11T20:24:17.422Z,10.03
2023-02-11T20:26:48.065Z,9.47
2023-02-11T20:29:18.074Z,9.90
2023-02-11T20:31:46.511Z,10.10
2023-02-11T20:34:17.026Z,9.50
2023-02-11T20:36:51.525Z,9.03
2023-02-11T20:39:22.135Z,10.23
2023-02-11T20:41:51.026Z,9.03
2023-02-11T20:44:22.553Z,9.00
2023-02-11T20:46:51.205Z,9.33
2023-02-11T20:49:22.304Z,8.23
2023-02-11T20:51:53.633Z,8.40
2023-02-11T20:54:22.466Z,8.63
2023-02-11T20:56:51.783Z,8.93
2023-02-11T20:59:22.002Z,9.37
2023-02-11T21:01:53.379Z,7.87
2023-02-11T21:04:23.945Z,7.77
2023-02-11T21:06:54.468Z,9.10
2023-02-11T21:09:24.278Z,8.17
2023-02-11T21:11:53.873Z,7.97
2023-02-11T21:14:25.287Z,8.30
2023-02-11T21:16:53.921Z,9.17
2023-02-11T21:19:22.140Z,7.83
2023-02-11T21:21:50.362Z,8.63
2023-02-11T21:24:18.503Z,8.87
2023-02-11T21:26:46.808Z,7.40
2023-02-11T21:29:15.029Z,8.03
2023-02-11T21:31:44.656Z,7.93
2023-02-11T21:34:12.908Z,6.90
2023-02-11T21:36:41.089Z,8.10
2023-02-11T21:39:09.209Z,7.33
2023-02-11T21:41:37.349Z,7.30
2023-02-11T21:44:05.726Z,7.80
2023-02-11T21:46:33.891Z,7.57
2023-02-11T21:49:03.573Z,7.87
2023-02-11T21:51:32.159Z,7.00
2023-02-11T21:54:02.979Z,7.20
2023-02-11T21:56:33.341Z,6.93
2023-02-11T21:59:02.072Z,7.30
2023-02-11T22:01:32.783Z,6.53
2023-02-11T22:04:01.102Z,7.00
2023-02-11T22:06:32.174Z,6.53
2023-02-11T22:09:03.110Z,8.03
2023-02-11T22:11:31.356Z,7.17
2023-02-11T22:14:00.028Z,7.30
2023-02-11T22:16:29.228Z,6.70
2023-02-11T22:18:58.630Z,6.97
2023-02-11T22:21:27.362Z,6.93
2023-02-11T22:23:57.409Z,7.00
2023-02-11T22:26:27.036Z,6.90
2023-02-11T22:28:56.363Z,6.67
2023-02-11T22:31:26.654Z,6.80
2023-02-11T22:33:55.176Z,7.03
2023-02-11T22:36:25.572Z,6.30
2023-02-11T22:38:54.271Z,6.43
2023-02-11T22:41:24.170Z,7.30
2023-02-11T22:43:52.391Z,7.03
2023-02-11T22:46:21.272Z,6.03
2023-02-11T22:48:50.380Z,6.43
2023-02-11T22:51:20.537Z,6.70
2023-02-11T22:53:53.297Z,6.83
2023-02-11T22:56:23.305Z,7.00
2023-02-11T22:58:53.223Z,5.50
2023-02-11T23:01:21.894Z,6.87
2023-02-11T23:03:50.282Z,6.30
2023-02-11T23:06:18.629Z,6.20
2023-02-11T23:08:47.568Z,6.40
2023-02-11T23:11:17.417Z,5.97
2023-02-11T23:13:48.542Z,6.10
2023-02-11T23:16:19.038Z,5.70
2023-02-11T23:18:48.510Z,5.40
2023-02-11T23:21:21.175Z,6.30
2023-02-11T23:23:50.067Z,6.40
2023-02-11T23:26:19.401Z,6.33
2023-02-11T23:28:48.966Z,5.97
2023-02-11T23:31:19.147Z,6.40
2023-02-11T23:33:47.982Z,5.80
2023-02-11T23:36:17.088Z,5.80
2023-02-11T23:38:45.492Z,5.60
2023-02-11T23:41:13.938Z,5.70
2023-02-11T23:43:42.706Z,6.47
2023-02-11T23:46:12.618Z,6.10
2023-02-11T23:48:41.313Z,5.80
2023-02-11T23:51:10.652Z,5.60
2023-02-11T23:53:39.044Z,5.87
2023-02-11T23:56:09.073Z,6.33
2023-02-11T23:58:37.489Z,5.87
